createdAt,value
2023-02-08T00:00:14.802Z,104104.81
2023-02-08T00:03:18.980Z,104102.91
2023-02-08T00:06:22.828Z,104102.47
2023-02-08T00:09:26.518Z,104103.13
2023-02-08T00:12:30.339Z,104098.66
2023-02-08T00:15:41.724Z,104101.22
2023-02-08T00:18:45.541Z,104099.41
2023-02-08T00:21:49.363Z,104104.44
2023-02-08T00:24:53.100Z,104100.75
2023-02-08T00:27:56.810Z,104105.53
2023-02-08T00:31:01.949Z,104107.81
2023-02-08T00:34:07.808Z,104098.72
2023-02-08T00:37:12.493Z,104097.47
2023-02-08T00:40:16.134Z,104094.91
2023-02-08T00:43:19.802Z,104083.00
2023-02-08T00:46:25.035Z,104081.31
2023-02-08T00:49:28.758Z,104079.28
2023-02-08T00:52:32.717Z,104078.50
2023-02-08T00:55:36.322Z,104074.69
2023-02-08T00:58:40.748Z,104083.41
2023-02-08T01:01:45.893Z,104079.50
2023-02-08T01:04:49.922Z,104071.81
2023-02-08T01:07:53.597Z,104073.31
2023-02-08T01:11:05.218Z,104066.16
2023-02-08T01:14:08.936Z,104060.03
2023-02-08T01:17:14.017Z,104055.88
2023-02-08T01:20:18.168Z,104053.56
2023-02-08T01:23:21.967Z,104058.47
2023-02-08T01:26:27.160Z,104061.44
2023-02-08T01:29:30.904Z,104054.25
2023-02-08T01:32:35.980Z,104061.50
2023-02-08T01:35:39.762Z,104071.19
2023-02-08T01:38:43.844Z,104066.75
2023-02-08T01:41:47.982Z,104058.81
2023-02-08T01:45:30.169Z,104059.06
2023-02-08T01:48:42.076Z,104063.81
2023-02-08T01:51:51.684Z,104059.09
2023-02-08T01:55:01.359Z,104063.25
2023-02-08T01:58:11.310Z,104066.13
2023-02-08T02:01:17.034Z,104067.31
2023-02-08T02:04:22.804Z,104063.84
2023-02-08T02:07:31.132Z,104063.34
2023-02-08T02:10:38.495Z,104067.91
2023-02-08T02:13:42.960Z,104063.84
2023-02-08T02:16:46.706Z,104066.63
2023-02-08T02:20:09.653Z,104067.47
2023-02-08T02:23:50.008Z,104068.47
2023-02-08T02:27:36.287Z,104057.75
2023-02-08T02:31:42.186Z,104049.94
2023-02-08T02:34:54.094Z,104041.72
2023-02-08T02:38:11.695Z,104035.56
2023-02-08T02:41:41.921Z,104030.19
2023-02-08T02:45:01.151Z,104037.47
2023-02-08T02:48:13.792Z,104036.94
2023-02-08T02:51:27.366Z,104047.72
2023-02-08T02:54:40.051Z,104041.88
2023-02-08T02:57:47.513Z,104045.97
2023-02-08T03:00:55.405Z,104053.31
2023-02-08T03:03:59.970Z,104062.97
2023-02-08T03:07:17.238Z,104066.56
2023-02-08T03:10:46.343Z,104057.84
2023-02-08T03:14:21.187Z,104070.31
2023-02-08T03:17:56.058Z,104064.78
2023-02-08T03:21:10.853Z,104064.50
2023-02-08T03:24:29.213Z,104071.94
2023-02-08T03:27:40.663Z,104068.84
2023-02-08T03:30:55.065Z,104064.09
2023-02-08T03:34:07.962Z,104074.09
2023-02-08T03:37:17.658Z,104071.91
2023-02-08T03:40:29.578Z,104077.03
2023-02-08T03:43:40.184Z,104086.25
2023-02-08T03:46:52.966Z,104085.59
2023-02-08T03:50:03.992Z,104077.03
2023-02-08T03:53:10.404Z,104082.16
2023-02-08T03:56:22.248Z,104084.81
2023-02-08T03:59:32.289Z,104090.88
2023-02-08T04:02:45.019Z,104081.72
2023-02-08T04:05:49.432Z,104083.28
2023-02-08T04:08:53.227Z,104077.13
2023-02-08T04:11:58.845Z,104088.00
2023-02-08T04:15:02.623Z,104086.75
2023-02-08T04:18:06.956Z,104087.50
2023-02-08T04:21:10.769Z,104083.94
2023-02-08T04:24:14.560Z,104087.78
2023-02-08T04:27:19.680Z,104096.00
2023-02-08T04:30:23.378Z,104088.53
2023-02-08T04:33:27.192Z,104083.41
2023-02-08T04:36:31.059Z,104087.25
2023-02-08T04:39:34.955Z,104091.75
2023-02-08T04:42:40.021Z,104081.50
2023-02-08T04:45:43.774Z,104082.91
2023-02-08T04:48:47.394Z,104083.59
2023-02-08T04:51:51.210Z,104075.22
2023-02-08T04:54:54.905Z,104070.38
2023-02-08T04:58:00.183Z,104070.38
2023-02-08T05:01:07.720Z,104068.81
2023-02-08T05:04:11.992Z,104064.84
2023-02-08T05:07:15.697Z,104063.44
2023-02-08T05:10:19.623Z,104057.00
2023-02-08T05:13:24.772Z,104057.00
2023-02-08T05:16:28.646Z,104059.19
2023-02-08T05:19:33.366Z,104056.88
2023-02-08T05:22:37.242Z,104056.00
2023-02-08T05:25:42.101Z,104055.47
2023-02-08T05:29:08.030Z,104052.97
2023-02-08T05:32:11.804Z,104065.38
2023-02-08T05:35:15.638Z,104066.78
2023-02-08T05:38:19.278Z,104059.19
2023-02-08T05:41:23.238Z,104058.31
2023-02-08T05:44:28.558Z,104055.53
2023-02-08T05:47:32.299Z,104041.03
2023-02-08T05:50:36.030Z,104046.03
2023-02-08T05:53:40.261Z,104032.88
2023-02-08T05:56:44.683Z,104035.28
2023-02-08T05:59:50.123Z,104023.50
2023-02-08T06:02:54.102Z,104032.00
2023-02-08T06:06:02.120Z,104029.19
2023-02-08T06:09:05.950Z,104031.75
2023-02-08T06:12:09.909Z,104029.44
2023-02-08T06:15:15.259Z,104030.56
2023-02-08T06:18:18.976Z,104030.31
2023-02-08T06:21:24.498Z,104043.13
2023-02-08T06:24:28.453Z,104041.72
2023-02-08T06:27:32.161Z,104037.66
2023-02-08T06:30:37.904Z,104032.88
2023-02-08T06:33:41.697Z,104020.19
2023-02-08T06:36:45.810Z,104034.41
2023-02-08T06:39:49.517Z,104041.47
2023-02-08T06:42:53.255Z,104046.59
2023-02-08T06:45:58.558Z,104040.97
2023-02-08T06:49:02.312Z,104049.28
2023-02-08T06:52:06.488Z,104057.63
2023-02-08T06:55:10.357Z,104055.28
2023-02-08T06:58:14.207Z,104055.06
2023-02-08T07:01:19.351Z,104055.06
2023-02-08T07:04:23.161Z,104062.47
2023-02-08T07:07:27.034Z,104063.22
2023-02-08T07:10:30.780Z,104061.19
2023-02-08T07:13:34.490Z,104061.97
2023-02-08T07:16:39.713Z,104059.78
2023-02-08T07:19:43.428Z,104052.56
2023-02-08T07:22:47.147Z,104049.75
2023-02-08T07:25:59.758Z,104048.84
2023-02-08T07:29:03.502Z,104053.97
2023-02-08T07:32:09.985Z,104055.94
2023-02-08T07:35:13.827Z,104048.78
2023-02-08T07:38:20.591Z,104053.66
2023-02-08T07:41:24.521Z,104047.44
2023-02-08T07:44:28.355Z,104046.88
2023-02-08T07:47:33.591Z,104048.16
2023-02-08T07:50:38.098Z,104041.19
2023-02-08T07:53:41.934Z,104034.72
2023-02-08T07:56:45.711Z,104026.28
2023-02-08T07:59:49.558Z,104034.91
2023-02-08T08:02:55.390Z,104036.81
2023-02-08T08:05:59.194Z,104030.84
2023-02-08T08:09:02.999Z,104025.81
2023-02-08T08:12:07.098Z,104025.72
2023-02-08T08:15:11.628Z,104033.44
2023-02-08T08:18:27.073Z,104038.03
2023-02-08T08:21:32.830Z,104028.81
2023-02-08T08:24:36.756Z,104032.50
2023-02-08T08:27:42.524Z,104024.59
2023-02-08T08:30:47.290Z,104023.16
2023-02-08T08:33:52.634Z,104024.03
2023-02-08T08:36:56.341Z,104023.34
2023-02-08T08:39:59.989Z,104020.00
2023-02-08T08:43:03.954Z,104010.84
2023-02-08T08:46:08.712Z,104016.09
2023-02-08T08:49:14.039Z,104014.84
2023-02-08T08:52:18.271Z,104008.78
2023-02-08T08:55:22.056Z,104011.00
2023-02-08T08:58:25.798Z,104011.78
2023-02-08T09:01:29.699Z,104008.47
2023-02-08T09:04:35.352Z,104008.44
2023-02-08T09:07:39.255Z,104005.50
2023-02-08T09:10:43.248Z,104015.63
2023-02-08T09:13:47.114Z,104010.06
2023-02-08T09:16:50.807Z,104007.25
2023-02-08T09:19:56.586Z,104001.88
2023-02-08T09:23:00.323Z,103999.44
2023-02-08T09:26:05.162Z,103995.28
2023-02-08T09:29:09.327Z,104003.03
2023-02-08T09:32:13.220Z,104001.94
2023-02-08T09:35:18.454Z,104004.84
2023-02-08T09:38:22.182Z,104011.28
2023-02-08T09:41:57.759Z,104010.38
2023-02-08T09:45:31.002Z,104003.53
2023-02-08T09:48:39.221Z,104005.00
2023-02-08T09:51:51.549Z,104006.59
2023-02-08T09:55:01.635Z,104005.00
2023-02-08T09:58:17.233Z,104011.31
2023-02-08T10:01:25.529Z,104007.28
2023-02-08T10:04:42.477Z,104012.91
2023-02-08T10:07:47.960Z,104009.44
2023-02-08T10:10:57.618Z,103996.50
2023-02-08T10:14:36.466Z,103995.47
2023-02-08T10:18:12.827Z,103987.66
2023-02-08T10:21:52.604Z,103986.13
2023-02-08T10:25:29.182Z,103981.00
2023-02-08T10:29:01.888Z,103979.66
2023-02-08T10:32:35.340Z,103979.84
2023-02-08T10:35:44.621Z,103979.31
2023-02-08T10:38:52.645Z,103978.94
2023-02-08T10:41:58.079Z,103978.22
2023-02-08T10:45:24.265Z,103976.19
2023-02-08T10:48:46.437Z,103975.53
2023-02-08T10:51:50.698Z,103961.72
2023-02-08T10:54:55.377Z,103967.84
2023-02-08T10:58:04.738Z,103966.75
2023-02-08T11:01:10.354Z,103962.75
2023-02-08T11:04:15.048Z,103962.88
2023-02-08T11:07:22.343Z,103972.78
2023-02-08T11:10:27.850Z,103969.00
2023-02-08T11:13:39.160Z,103975.53
2023-02-08T11:16:44.077Z,103963.94
2023-02-08T11:19:51.186Z,103957.34
2023-02-08T11:22:55.591Z,103960.22
2023-02-08T11:26:19.502Z,103956.25
2023-02-08T11:29:27.223Z,103954.75
2023-02-08T11:32:33.763Z,103954.50
2023-02-08T11:35:37.936Z,103947.44
2023-02-08T11:38:44.465Z,103945.66
2023-02-08T11:41:53.539Z,103945.97
2023-02-08T11:45:00.982Z,103938.84
2023-02-08T11:48:07.380Z,103930.75
2023-02-08T11:51:15.341Z,103931.94
2023-02-08T11:54:50.648Z,103925.41
2023-02-08T11:58:03.497Z,103927.03
2023-02-08T12:01:21.443Z,103926.75
2023-02-08T12:04:25.207Z,103921.44
2023-02-08T12:07:59.993Z,103911.03
2023-02-08T12:11:17.838Z,103907.56
2023-02-08T12:14:56.479Z,103894.25
2023-02-08T12:18:28.711Z,103892.47
2023-02-08T12:21:41.889Z,103887.50
2023-02-08T12:24:55.587Z,103875.66
2023-02-08T12:28:14.533Z,103869.94
2023-02-08T12:31:30.804Z,103864.44
2023-02-08T12:34:55.698Z,103863.84
2023-02-08T12:38:25.457Z,103853.03
2023-02-08T12:41:37.691Z,103845.31
2023-02-08T12:45:04.364Z,103833.50
2023-02-08T12:48:31.986Z,103819.94
2023-02-08T12:51:50.030Z,103815.31
2023-02-08T12:54:58.377Z,103812.53
2023-02-08T12:58:22.410Z,103803.84
2023-02-08T13:01:33.201Z,103799.53
2023-02-08T13:04:42.649Z,103792.31
2023-02-08T13:07:52.770Z,103785.00
2023-02-08T13:11:18.853Z,103773.34
2023-02-08T13:14:33.603Z,103771.72
2023-02-08T13:17:48.318Z,103769.81
2023-02-08T13:20:58.643Z,103764.91
2023-02-08T13:24:13.095Z,103764.50
2023-02-08T13:27:20.030Z,103756.41
2023-02-08T13:30:24.671Z,103750.31
2023-02-08T13:33:59.316Z,103751.31
2023-02-08T13:37:24.827Z,103741.63
2023-02-08T13:40:35.330Z,103748.84
2023-02-08T13:43:44.977Z,103750.22
2023-02-08T13:46:52.604Z,103745.06
2023-02-08T13:50:00.992Z,103748.72
2023-02-08T13:53:05.763Z,103740.13
2023-02-08T13:56:13.294Z,103728.81
2023-02-08T13:59:41.893Z,103722.28
2023-02-08T14:03:04.099Z,103726.88
2023-02-08T14:06:20.582Z,103725.78
2023-02-08T14:09:32.414Z,103723.19
2023-02-08T14:12:46.619Z,103726.25
2023-02-08T14:16:28.448Z,103726.09
2023-02-08T14:19:34.572Z,103729.56
2023-02-08T14:22:51.724Z,103719.50
2023-02-08T14:25:59.599Z,103709.22
2023-02-08T14:29:08.117Z,103709.28
2023-02-08T14:32:25.189Z,103705.66
2023-02-08T14:35:31.652Z,103707.31
2023-02-08T14:39:06.680Z,103708.50
2023-02-08T14:42:14.063Z,103702.97
2023-02-08T14:45:33.035Z,103701.28
2023-02-08T14:48:45.581Z,103693.34
2023-02-08T14:51:58.017Z,103694.03
2023-02-08T14:55:11.707Z,103692.06
2023-02-08T14:58:28.212Z,103688.50
2023-02-08T15:01:44.389Z,103688.78
2023-02-08T15:04:49.009Z,103690.00
2023-02-08T15:07:56.312Z,103680.25
2023-02-08T15:11:00.618Z,103674.66
2023-02-08T15:14:07.157Z,103673.69
2023-02-08T15:17:28.587Z,103667.22
2023-02-08T15:20:35.653Z,103661.72
2023-02-08T15:23:39.510Z,103660.22
2023-02-08T15:26:47.653Z,103664.66
2023-02-08T15:29:52.073Z,103659.22
2023-02-08T15:32:59.033Z,103668.19
2023-02-08T15:36:07.263Z,103674.19
2023-02-08T15:39:24.394Z,103666.16
2023-02-08T15:42:33.216Z,103656.97
2023-02-08T15:45:37.210Z,103652.78
2023-02-08T15:48:45.812Z,103655.50
2023-02-08T15:51:51.091Z,103652.78
2023-02-08T15:54:54.881Z,103648.75
2023-02-08T15:58:04.302Z,103650.44
2023-02-08T16:01:10.295Z,103650.72
2023-02-08T16:04:15.519Z,103650.91
2023-02-08T16:07:29.398Z,103645.16
2023-02-08T16:10:40.144Z,103642.72
2023-02-08T16:13:51.671Z,103641.97
2023-02-08T16:16:58.100Z,103639.97
2023-02-08T16:20:04.185Z,103641.44
2023-02-08T16:23:26.965Z,103626.31
2023-02-08T16:26:36.851Z,103623.00
2023-02-08T16:29:42.273Z,103612.38
2023-02-08T16:32:46.900Z,103604.56
2023-02-08T16:35:53.574Z,103606.03
2023-02-08T16:39:46.900Z,103599.25
2023-02-08T16:42:50.640Z,103585.78
2023-02-08T16:46:27.783Z,103583.59
2023-02-08T16:49:31.511Z,103578.09
2023-02-08T16:52:37.433Z,103585.50
2023-02-08T16:55:41.184Z,103591.56
2023-02-08T16:58:44.916Z,103586.66
2023-02-08T17:01:50.274Z,103573.59
2023-02-08T17:04:54.676Z,103563.50
2023-02-08T17:08:01.718Z,103556.25
2023-02-08T17:11:06.914Z,103550.09
2023-02-08T17:14:11.333Z,103551.38
2023-02-08T17:17:15.158Z,103551.09
2023-02-08T17:20:23.750Z,103553.75
2023-02-08T17:23:29.036Z,103549.09
2023-02-08T17:26:40.904Z,103549.75
2023-02-08T17:29:44.788Z,103544.44
2023-02-08T17:32:49.494Z,103538.50
2023-02-08T17:35:54.203Z,103541.66
2023-02-08T17:38:59.797Z,103543.25
2023-02-08T17:42:03.509Z,103538.81
2023-02-08T17:45:08.158Z,103543.81
2023-02-08T17:48:13.513Z,103544.63
2023-02-08T17:51:19.933Z,103535.28
2023-02-08T17:54:25.071Z,103537.38
2023-02-08T17:57:28.872Z,103540.78
2023-02-08T18:00:34.785Z,103542.59
2023-02-08T18:03:38.400Z,103542.44
2023-02-08T18:06:42.083Z,103531.81
2023-02-08T18:09:47.190Z,103528.72
2023-02-08T18:12:51.318Z,103528.72
2023-02-08T18:15:55.162Z,103530.91
2023-02-08T18:19:01.908Z,103523.06
2023-02-08T18:22:06.255Z,103526.66
2023-02-08T18:25:14.390Z,103522.94
2023-02-08T18:28:18.149Z,103522.78
2023-02-08T18:31:22.957Z,103516.00
2023-02-08T18:34:27.848Z,103516.81
2023-02-08T18:37:32.218Z,103508.03
2023-02-08T18:40:37.476Z,103506.59
2023-02-08T18:43:42.136Z,103507.38
2023-02-08T18:46:47.893Z,103506.38
2023-02-08T18:49:55.702Z,103508.09
2023-02-08T18:52:59.507Z,103496.81
2023-02-08T18:56:07.178Z,103492.44
2023-02-08T18:59:11.753Z,103485.00
2023-02-08T19:02:22.065Z,103485.97
2023-02-08T19:05:26.128Z,103478.66
2023-02-08T19:08:29.867Z,103485.06
2023-02-08T19:11:37.369Z,103472.28
2023-02-08T19:14:41.223Z,103479.25
2023-02-08T19:17:44.954Z,103481.00
2023-02-08T19:20:48.643Z,103481.41
2023-02-08T19:23:55.652Z,103474.56
2023-02-08T19:27:01.099Z,103471.66
2023-02-08T19:30:06.973Z,103472.25
2023-02-08T19:33:10.670Z,103470.22
2023-02-08T19:36:18.449Z,103470.88
2023-02-08T19:39:25.613Z,103468.47
2023-02-08T19:42:30.871Z,103462.44
2023-02-08T19:45:44.692Z,103465.56
2023-02-08T19:48:49.136Z,103458.16
2023-02-08T19:51:52.969Z,103452.84
2023-02-08T19:54:56.653Z,103446.56
2023-02-08T19:58:02.105Z,103452.03
2023-02-08T20:01:09.118Z,103447.53
2023-02-08T20:04:13.705Z,103449.13
2023-02-08T20:07:17.607Z,103447.19
2023-02-08T20:10:21.583Z,103441.00
2023-02-08T20:13:26.682Z,103450.72
2023-02-08T20:16:32.137Z,103449.56
2023-02-08T20:19:38.858Z,103446.19
2023-02-08T20:22:42.745Z,103449.25
2023-02-08T20:25:46.749Z,103444.50
2023-02-08T20:28:55.506Z,103455.34
2023-02-08T20:31:59.767Z,103458.47
2023-02-08T20:35:04.030Z,103456.59
2023-02-08T20:38:07.718Z,103451.84
2023-02-08T20:41:15.413Z,103453.34
2023-02-08T20:44:20.762Z,103459.13
2023-02-08T20:47:24.996Z,103454.69
2023-02-08T20:50:30.950Z,103460.72
2023-02-08T20:53:35.691Z,103457.97
2023-02-08T20:56:40.515Z,103445.63
2023-02-08T20:59:46.703Z,103457.34
2023-02-08T21:02:50.497Z,103456.91
2023-02-08T21:05:54.508Z,103451.22
2023-02-08T21:08:59.235Z,103444.75
2023-02-08T21:12:03.114Z,103449.91
2023-02-08T21:15:10.439Z,103442.84
2023-02-08T21:18:14.147Z,103439.88
2023-02-08T21:21:19.236Z,103445.66
2023-02-08T21:24:24.010Z,103456.31
2023-02-08T21:27:27.774Z,103444.41
2023-02-08T21:30:33.113Z,103447.34
2023-02-08T21:33:37.035Z,103441.06
2023-02-08T21:36:41.244Z,103438.19
2023-02-08T21:39:47.206Z,103437.06
2023-02-08T21:42:51.032Z,103437.69
2023-02-08T21:45:56.306Z,103442.00
2023-02-08T21:49:18.227Z,103441.72
2023-02-08T21:52:39.358Z,103438.13
2023-02-08T21:55:47.597Z,103437.28
2023-02-08T21:58:51.433Z,103437.47
2023-02-08T22:01:56.750Z,103423.00
2023-02-08T22:05:22.107Z,103430.63
2023-02-08T22:08:26.071Z,103430.44
2023-02-08T22:11:29.872Z,103423.53
2023-02-08T22:14:36.228Z,103417.59
2023-02-08T22:17:41.731Z,103406.59
2023-02-08T22:20:45.774Z,103410.66
2023-02-08T22:23:49.864Z,103403.38
2023-02-08T22:26:53.582Z,103402.59
2023-02-08T22:29:57.392Z,103391.84
2023-02-08T22:33:02.551Z,103390.19
2023-02-08T22:36:08.567Z,103379.81
2023-02-08T22:39:12.454Z,103383.78
2023-02-08T22:42:16.260Z,103381.19
2023-02-08T22:45:20.160Z,103381.72
2023-02-08T22:48:25.324Z,103373.22
2023-02-08T22:51:29.008Z,103364.94
2023-02-08T22:54:32.888Z,103370.88
2023-02-08T22:57:37.367Z,103361.50
2023-02-08T23:00:44.600Z,103366.47
2023-02-08T23:03:49.957Z,103356.28
2023-02-08T23:06:53.683Z,103352.34
2023-02-08T23:09:57.369Z,103349.97
2023-02-08T23:13:01.575Z,103338.22
2023-02-08T23:16:05.886Z,103337.16
2023-02-08T23:19:15.128Z,103336.63
2023-02-08T23:22:18.814Z,103338.84
2023-02-08T23:25:22.995Z,103335.22
2023-02-08T23:28:26.872Z,103337.16
2023-02-08T23:31:30.900Z,103332.53
2023-02-08T23:34:37.113Z,103327.69
2023-02-08T23:37:41.097Z,103333.25
2023-02-08T23:40:45.025Z,103334.66
2023-02-08T23:43:50.739Z,103326.84
2023-02-08T23:46:54.537Z,103327.91
2023-02-08T23:49:59.786Z,103329.50
2023-02-08T23:53:03.477Z,103325.25
2023-02-08T23:56:15.347Z,103316.50
2023-02-08T23:59:19.078Z,103308.59
